Impacts METAR Board
IDs:

KSLC - Salt Lake City Intl, UT, US

Updated at: 0200 UTC 23 Sep 2018
Potential Impact None Slight Moderate High
Time 22/14Z 22/15Z 22/16Z 22/17Z 22/18Z 22/19Z 22/20Z 22/21Z 22/22Z 22/23Z 23/00Z 23/01Z 23/02Z
Temp62 67 70 76 81 84 85 86 86 87 86 83 77
Dewpt29 26 31 32 30 31 33 33 32 33 33 34 34
Altim30.10 30.12 30.12 30.12 30.10 30.08 30.05 30.02 29.99 29.97 29.96 29.95 29.95
VIS7 6 8 10 10 10 10 10 10 10 10 10 10
CIG-- -- -- -- -- -- -- -- -- -- -- -- --
CoverFEWFEWFEWFEWFEWFEWFEWFEWFEWFEWFEWFEWFEW
FltCatVFRVFRVFRVFRVFRVFRVFRVFRVFRVFRVFRVFRVFR
WX--HZ----------------------
WDir14016013015016018016016016028029036020
WSpd12 10 4 4 19 21 19 19 12 9 7 7 9
WGst-- -- -- -- 23 30 -- 24 -- 23 -- -- --
Raw hourly METARs
KSLC 221354Z 14012KT 7SM FEW220 17/M02 A3010 RMK AO2 SLP150 T01671017
KSLC 221454Z 16010KT 6SM HZ FEW200 19/M03 A3012 RMK AO2 SLP154 T01941033 53007
KSLC 221554Z 13004KT 8SM FEW200 21/M01 A3012 RMK AO2 SLP155 T02111006
KSLC 221654Z 15004KT 10SM FEW200 24/00 A3012 RMK AO2 SLP151 T02440000
KSLC 221754Z 16019G23KT 10SM FEW160 27/M01 A3010 RMK AO2 SLP142 T02721011 10278 20150 58006
KSLC 221854Z 18021G30KT 10SM FEW120 29/M01 A3008 RMK AO2 PK WND 19030/1852 SLP133 T02891006
KSLC 221954Z 16019KT 10SM FEW140 29/01 A3005 RMK AO2 PK WND 18027/1917 SLP124 T02940006
KSLC 222054Z 16019G24KT 10SM FEW140 30/01 A3002 RMK AO2 SLP111 T03000006 58024
KSLC 222154Z COR 16012KT 10SM FEW100 30/00 A2999 RMK AO2 SLP104 T03000000
KSLC 222254Z 28009G23KT 10SM FEW095 FEW180 31/01 A2997 RMK AO2 PK WND 17026/2156 SLP095 T03060006
KSLC 222354Z 29007KT 10SM FEW090 FEW180 30/01 A2996 RMK AO2 SLP095 T03000006 10306 20272 56016
KSLC 230054Z 36007KT 10SM FEW090 FEW180 28/01 A2995 RMK AO2 SLP093 T02830011
KSLC 230154Z 02009KT 10SM FEW090 FEW180 25/01 A2995 RMK AO2 SLP093 T02500011



Page loaded:  02:09 UTC  |   07:09 PM Pacific  |   08:09 PM Mountain  |   09:09 PM Central  |   10:09 PM Eastern

 

ADVISORIES

FORECASTS

FORECASTS

OBSERVATIONS

USER TOOLS

ABOUT US